Alden, New York
Current Conditions -  °F | °C
As of 7:54 PM on Friday 24 Oct 2014 (Local Time) from KBUF Reporting Station
Few Clouds Few Clouds  
Wind Chill: 11°   Ceiling: Unl
Heat Index: 11°   Visibility: 10mi
Dew Point:   Wind: 9mph
Humidity: 77%   Direction: 240°WSW
Pressure: 29.96"   Gusts: NA
Location:  42.9°N, 78.49°W
Report Text: KBUF 242354Z 24008KT 10SM FEW190 FEW280 11/07 A2996 RMK AO2 SLP148 T01060067 10117 20100 53002
Loading
Personal Weather Stations






























Interactive Weather Map
Tropical Storm Tracking
New forecast layout! Learn more

10-Day Weather Forecast

Advertisements
Track Severe Weather on mobile